Time;durP1;ratioP1;P1;durP2;ratioP2;P2;SDS_P1;SDS_P2;PMS_P1;PMS_P2;Temp;Humidity;BMP_temperature;BMP_pressure;BME280_temperature;BME280_humidity;BME280_pressure;Samples;Min_cycle;Max_cycle;Signal;HPM_P1;HPM_P2
2022/09/15 00:00:50;;;;;;;2.53;2.33;;;;;;;18.71;57.01;99393.88;5050775;28;20040;-82
2022/09/15 00:03:16;;;;;;;2.83;1.55;;;;;;;18.77;57.59;99388.22;5050050;28;20029;-82
2022/09/15 00:05:43;;;;;;;0.82;0.70;;;;;;;18.58;58.22;99377.66;5050364;28;20029;-82
2022/09/15 00:08:08;;;;;;;0.40;0.40;;;;;;;18.86;58.28;99391.34;5050795;28;20082;-82
2022/09/15 00:10:34;;;;;;;0.77;0.77;;;;;;;18.74;58.59;99375.00;5050721;28;20021;-82
2022/09/15 00:12:59;;;;;;;6.53;1.75;;;;;;;18.75;59.28;99399.91;5031483;28;20052;-82
2022/09/15 00:15:25;;;;;;;2.60;1.33;;;;;;;18.66;59.55;99403.97;5050866;28;20095;-82
2022/09/15 00:17:51;;;;;;;0.77;0.77;;;;;;;18.61;59.32;99396.19;5050417;28;20025;-81
2022/09/15 00:20:21;;;;;;;1.77;1.30;;;;;;;18.62;59.12;99397.03;5050400;28;20082;-81
2022/09/15 00:22:47;;;;;;;0.38;0.38;;;;;;;18.52;59.60;99379.75;5050251;28;20037;-82
2022/09/15 00:25:12;;;;;;;0.93;0.60;;;;;;;18.67;59.75;99388.78;5050757;28;20048;-83
2022/09/15 00:27:38;;;;;;;1.05;0.98;;;;;;;18.67;60.16;99370.94;5050508;28;20036;-84
2022/09/15 00:30:05;;;;;;;1.38;1.27;;;;;;;18.83;59.65;99394.16;5050441;28;20033;-82
2022/09/15 00:32:31;;;;;;;4.13;2.40;;;;;;;18.65;59.68;99388.88;5049842;28;20041;-82
2022/09/15 00:34:56;;;;;;;1.02;1.02;;;;;;;18.58;59.54;99396.34;5053613;28;20380;-82
2022/09/15 00:37:22;;;;;;;1.15;1.05;;;;;;;18.55;59.21;99372.47;5053889;28;20025;-81
2022/09/15 00:39:47;;;;;;;1.52;1.42;;;;;;;18.45;60.00;99379.22;5053902;28;20048;-82
2022/09/15 00:42:15;;;;;;;1.75;1.25;;;;;;;18.30;60.14;99367.53;5035985;28;20029;-83
2022/09/15 00:44:59;;;;;;;2.28;2.00;;;;;;;18.13;60.52;99357.72;5054305;28;20511;-81
2022/09/15 00:47:33;;;;;;;0.43;0.43;;;;;;;18.08;60.95;99330.44;5054072;28;20082;-81
2022/09/15 00:50:05;;;;;;;0.90;0.77;;;;;;;18.14;60.96;99350.63;5053800;28;20163;-81
2022/09/15 00:52:39;;;;;;;5.43;2.17;;;;;;;18.12;60.95;99333.78;5053587;28;20037;-82
2022/09/15 00:55:05;;;;;;;1.30;0.77;;;;;;;18.42;60.71;99382.06;5053752;28;20033;-81
2022/09/15 00:57:47;;;;;;;2.38;2.13;;;;;;;18.28;60.04;99390.78;5054376;28;20028;-82
2022/09/15 01:00:17;;;;;;;0.35;0.35;;;;;;;18.05;60.42;99383.97;5053784;28;20045;-82
2022/09/15 01:02:44;;;;;;;1.20;1.10;;;;;;;17.88;60.11;99355.44;5053554;28;20091;-82
2022/09/15 01:05:14;;;;;;;1.70;1.48;;;;;;;18.03;59.77;99352.00;5053446;28;20460;-82
2022/09/15 01:07:55;;;;;;;1.25;1.25;;;;;;;18.08;59.64;99349.97;5053949;28;20044;-82
2022/09/15 01:10:25;;;;;;;1.45;1.15;;;;;;;18.21;60.25;99384.03;5053751;28;20025;-81
2022/09/15 01:12:55;;;;;;;1.80;1.17;;;;;;;17.98;60.79;99354.06;5053603;28;20117;-81
2022/09/15 01:15:25;;;;;;;0.98;0.98;;;;;;;18.19;60.74;99375.25;5053510;28;20407;-83
2022/09/15 01:18:17;;;;;;;1.95;0.82;;;;;;;18.13;61.02;99384.44;5053126;28;20087;-81
2022/09/15 01:20:55;;;;;;;1.75;1.15;;;;;;;18.06;60.77;99364.34;5053795;28;20036;-81
2022/09/15 01:23:39;;;;;;;1.85;1.75;;;;;;;17.94;61.79;99376.50;5053242;28;20047;-81
2022/09/15 01:26:41;;;;;;;0.77;0.77;;;;;;;17.74;62.38;99368.59;5053346;28;20036;-81
2022/09/15 01:29:38;;;;;;;0.63;0.52;;;;;;;17.75;62.21;99375.66;5011545;28;20144;-81
2022/09/15 01:35:09;;;;;;;2.33;1.73;;;;;;;17.83;62.06;99369.00;5053312;28;20090;-81
2022/09/15 01:37:41;;;;;;;0.73;0.73;;;;;;;17.65;62.51;99349.44;5053074;28;20499;-80
2022/09/15 01:40:08;;;;;;;0.40;0.40;;;;;;;17.87;61.92;99375.91;5052991;28;20487;-82
2022/09/15 01:42:36;;;;;;;0.75;0.75;;;;;;;17.90;61.80;99380.25;5052996;28;20112;-81
2022/09/15 01:45:25;;;;;;;0.82;0.82;;;;;;;17.90;61.78;99361.56;5052672;28;20625;-81
2022/09/15 01:47:56;;;;;;;1.10;1.08;;;;;;;17.81;62.57;99357.56;5052516;28;20064;-82
2022/09/15 01:50:27;;;;;;;7.28;2.72;;;;;;;17.58;63.23;99344.47;5042320;28;20029;-81
2022/09/15 01:52:58;;;;;;;1.75;1.20;;;;;;;17.91;62.56;99368.66;5032887;28;20068;-82
2022/09/15 01:55:37;;;;;;;1.40;1.15;;;;;;;17.83;62.79;99362.81;5015643;28;20186;-81
2022/09/15 01:58:03;;;;;;;0.85;0.50;;;;;;;17.74;63.10;99356.13;5033312;28;20026;-82
2022/09/15 02:00:32;;;;;;;0.80;0.80;;;;;;;17.58;63.26;99342.69;5041757;28;20491;-81
2022/09/15 02:03:04;;;;;;;0.65;0.57;;;;;;;17.62;63.47;99365.59;5051618;28;20020;-82
2022/09/15 02:05:46;;;;;;;0.40;0.40;;;;;;;17.76;63.28;99358.72;5052587;28;20025;-82
2022/09/15 02:08:32;;;;;;;1.25;1.15;;;;;;;17.92;63.51;99381.06;5052646;28;20115;-82
2022/09/15 02:11:24;;;;;;;0.70;0.70;;;;;;;17.90;63.46;99364.25;5052271;28;20039;-82
2022/09/15 02:14:11;;;;;;;1.42;1.30;;;;;;;17.72;64.13;99388.22;5052493;28;20025;-86
2022/09/15 02:16:40;;;;;;;1.40;1.33;;;;;;;17.47;63.64;99358.34;5034690;28;20526;-83
2022/09/15 02:19:30;;;;;;;1.17;1.13;;;;;;;17.53;63.68;99392.69;5052041;28;20029;-82
2022/09/15 02:22:09;;;;;;;1.13;1.05;;;;;;;17.62;63.16;99381.59;5052237;28;20106;-82
2022/09/15 02:24:43;;;;;;;0.82;0.82;;;;;;;17.75;62.64;99372.97;5052451;28;20032;-81
2022/09/15 02:27:15;;;;;;;1.90;1.80;;;;;;;17.72;61.87;99361.53;5052433;28;20082;-82
2022/09/15 02:29:43;;;;;;;0.20;0.20;;;;;;;17.49;62.19;99322.66;5052088;28;20044;-82
2022/09/15 02:32:14;;;;;;;0.60;0.60;;;;;;;17.45;62.84;99346.91;5051871;28;20036;-82
2022/09/15 02:34:45;;;;;;;1.00;0.88;;;;;;;17.50;63.80;99372.41;5051555;28;20033;-82
2022/09/15 02:37:12;;;;;;;1.55;1.38;;;;;;;17.48;63.13;99342.25;5051775;28;20033;-82
2022/09/15 02:39:42;;;;;;;3.03;2.50;;;;;;;17.54;62.85;99352.63;5051950;28;20066;-81
2022/09/15 02:42:08;;;;;;;1.15;1.05;;;;;;;17.47;62.82;99347.66;5034173;28;20518;-82
2022/09/15 02:44:34;;;;;;;2.28;1.52;;;;;;;17.55;62.62;99358.84;5051954;28;20112;-82
2022/09/15 02:47:00;;;;;;;1.52;1.42;;;;;;;17.62;62.69;99357.59;5033354;28;20047;-81
2022/09/15 02:49:26;;;;;;;17.48;2.85;;;;;;;17.76;62.81;99374.72;5051526;28;20052;-82
2022/09/15 02:51:52;;;;;;;0.80;0.60;;;;;;;17.44;63.29;99335.38;5051834;28;20025;-82
2022/09/15 02:54:18;;;;;;;2.55;1.42;;;;;;;17.77;63.14;99382.66;5051985;28;20025;-82
2022/09/15 02:56:43;;;;;;;0.63;0.63;;;;;;;17.51;62.97;99335.94;5051002;28;20045;-81
2022/09/15 02:59:09;;;;;;;2.10;1.88;;;;;;;17.74;62.88;99381.94;5051566;28;20029;-82
2022/09/15 03:01:34;;;;;;;1.27;1.20;;;;;;;17.70;63.29;99374.09;5051557;28;20036;-81
2022/09/15 03:04:03;;;;;;;0.77;0.70;;;;;;;17.50;64.26;99369.75;5051490;28;20091;-82
2022/09/15 03:06:33;;;;;;;0.65;0.65;;;;;;;17.62;63.75;99376.25;5050664;28;20082;-81
2022/09/15 03:09:01;;;;;;;0.93;0.90;;;;;;;17.42;63.50;99323.91;5051323;28;20037;-81
2022/09/15 03:11:28;;;;;;;1.00;0.90;;;;;;;17.43;63.87;99368.28;5051515;28;20025;-82
2022/09/15 03:13:56;;;;;;;1.35;1.25;;;;;;;17.41;63.95;99350.63;5051505;28;20027;-82
2022/09/15 03:16:23;;;;;;;0.52;0.52;;;;;;;17.55;63.62;99366.84;5051451;28;20052;-81
2022/09/15 03:18:48;;;;;;;0.73;0.73;;;;;;;17.53;63.50;99348.25;5051141;28;20040;-82
2022/09/15 03:21:15;;;;;;;1.02;1.02;;;;;;;17.47;62.89;99339.66;5033743;28;20037;-81
2022/09/15 03:23:42;;;;;;;0.80;0.80;;;;;;;17.64;63.14;99377.06;5051141;28;20037;-82
2022/09/15 03:26:09;;;;;;;0.63;0.63;;;;;;;17.69;63.12;99369.69;5051396;28;20037;-81
2022/09/15 03:28:36;;;;;;;2.40;2.15;;;;;;;17.65;63.47;99370.78;5049685;28;20079;-81
2022/09/15 03:31:01;;;;;;;2.10;1.88;;;;;;;17.41;63.71;99342.63;5045169;28;20473;-82
2022/09/15 03:33:28;;;;;;;2.92;1.83;;;;;;;17.23;64.35;99387.06;5050046;28;20041;-81
2022/09/15 03:35:54;;;;;;;1.73;1.60;;;;;;;17.16;64.53;99354.47;5051352;28;20021;-81
2022/09/15 03:38:20;;;;;;;1.13;1.08;;;;;;;17.48;64.13;99373.41;5051037;28;20025;-82
2022/09/15 03:41:00;;;;;;;1.17;1.13;;;;;;;17.42;63.34;99374.56;5050839;28;20625;-81
2022/09/15 03:43:26;;;;;;;1.17;1.05;;;;;;;17.41;63.01;99366.63;5050775;28;20033;-84
2022/09/15 03:45:52;;;;;;;0.57;0.57;;;;;;;17.22;63.33;99356.00;5033808;28;20041;-83
2022/09/15 03:48:18;;;;;;;0.50;0.50;;;;;;;17.26;63.91;99374.44;5034194;28;20052;-84
2022/09/15 03:50:44;;;;;;;0.30;0.30;;;;;;;17.11;63.84;99345.84;5044541;28;20419;-83
2022/09/15 03:53:09;;;;;;;1.65;1.55;;;;;;;17.34;63.45;99377.59;5044348;28;20041;-83
2022/09/15 03:55:35;;;;;;;3.33;1.88;;;;;;;17.05;63.66;99325.69;5046559;28;20110;-84
2022/09/15 03:58:00;;;;;;;1.10;1.10;;;;;;;17.21;64.11;99365.81;5044227;28;20078;-83
2022/09/15 04:00:25;;;;;;;4.15;1.13;;;;;;;17.27;63.88;99362.84;5047954;28;20447;-83
2022/09/15 04:02:51;;;;;;;2.25;1.45;;;;;;;17.45;64.50;99386.88;5045435;28;20032;-82
2022/09/15 04:05:16;;;;;;;0.93;0.88;;;;;;;17.30;64.68;99356.50;5043708;28;20446;-80
2022/09/15 04:07:42;;;;;;;1.95;1.85;;;;;;;17.15;64.73;99326.13;5045524;28;20033;-80
2022/09/15 04:10:08;;;;;;;3.47;1.67;;;;;;;17.26;64.84;99370.91;5053692;28;20057;-80
2022/09/15 04:12:35;;;;;;;1.65;1.52;;;;;;;17.09;65.53;99367.25;5047882;28;20033;-82
2022/09/15 04:15:01;;;;;;;1.95;1.85;;;;;;;17.08;65.27;99359.31;5043015;28;20037;-80
2022/09/15 04:17:27;;;;;;;0.57;0.57;;;;;;;17.31;64.71;99392.88;5054266;28;20055;-81
2022/09/15 04:19:53;;;;;;;0.75;0.75;;;;;;;17.31;64.53;99388.41;5054307;28;20037;-82
2022/09/15 04:22:18;;;;;;;1.08;1.02;;;;;;;17.23;64.64;99373.72;5036307;28;20522;-80
2022/09/15 04:24:47;;;;;;;3.20;2.80;;;;;;;16.79;65.41;99348.19;5037553;28;20025;-81
2022/09/15 04:27:13;;;;;;;2.47;2.30;;;;;;;17.37;64.38;99403.25;5049702;28;20032;-82
2022/09/15 04:29:39;;;;;;;2.35;1.70;;;;;;;17.32;64.19;99398.13;5048965;28;20035;-82
2022/09/15 04:32:05;;;;;;;1.05;1.05;;;;;;;16.98;64.76;99372.22;5030571;28;20045;-81
2022/09/15 04:34:30;;;;;;;2.08;1.35;;;;;;;17.11;64.47;99369.84;5042470;28;20032;-82
2022/09/15 04:36:56;;;;;;;1.05;1.00;;;;;;;16.78;65.83;99378.44;5045433;28;20100;-81
2022/09/15 04:39:21;;;;;;;1.00;1.00;;;;;;;17.00;65.62;99373.00;5050485;28;20072;-82
2022/09/15 04:41:46;;;;;;;1.58;1.48;;;;;;;16.96;65.25;99374.97;5046750;28;20037;-83
2022/09/15 04:44:12;;;;;;;2.20;2.00;;;;;;;16.93;65.62;99391.09;5035364;28;20064;-82
2022/09/15 04:46:37;;;;;;;0.50;0.50;;;;;;;17.04;65.68;99405.69;5034588;28;20040;-82
2022/09/15 04:49:03;;;;;;;1.42;1.15;;;;;;;17.07;65.62;99393.09;5033509;28;20056;-82
2022/09/15 04:51:28;;;;;;;3.17;2.28;;;;;;;17.13;65.82;99407.94;5032857;28;20083;-82
2022/09/15 04:53:54;;;;;;;2.53;2.33;;;;;;;17.21;66.36;99432.44;5018085;28;20503;-82
2022/09/15 04:56:22;;;;;;;4.00;3.65;;;;;;;17.00;66.52;99389.84;5040912;28;20026;-84
2022/09/15 04:58:50;;;;;;;1.20;1.05;;;;;;;17.36;65.78;99425.50;5037637;28;20025;-82
2022/09/15 05:01:18;;;;;;;1.48;1.02;;;;;;;17.40;65.43;99420.91;5044224;28;20033;-82
2022/09/15 05:03:45;;;;;;;2.38;1.73;;;;;;;17.34;65.45;99398.06;5045585;28;20246;-84
2022/09/15 05:06:13;;;;;;;1.13;1.02;;;;;;;17.61;64.79;99397.66;5053602;28;20033;-83
2022/09/15 05:08:39;;;;;;;1.23;1.17;;;;;;;17.82;65.05;99425.09;5043345;28;20465;-82
2022/09/15 05:11:09;;;;;;;1.70;1.25;;;;;;;17.72;65.18;99398.03;5033409;28;20037;-82
2022/09/15 05:13:35;;;;;;;1.60;1.40;;;;;;;17.92;64.80;99404.19;5045579;28;20029;-83
2022/09/15 05:16:22;;;;;;;2.30;1.08;;;;;;;18.08;64.44;99410.50;5053561;28;20041;-86
2022/09/15 05:18:49;;;;;;;3.80;2.08;;;;;;;18.27;64.59;99421.09;5046261;28;20143;-83
2022/09/15 05:21:17;;;;;;;1.80;1.70;;;;;;;18.22;63.62;99412.47;5053007;28;20399;-83
2022/09/15 05:23:43;;;;;;;1.77;1.67;;;;;;;18.63;63.23;99427.28;5045673;28;20033;-83
2022/09/15 05:26:13;;;;;;;1.00;1.00;;;;;;;18.81;63.03;99414.75;5051663;28;20025;-82
2022/09/15 05:28:38;;;;;;;1.30;1.23;;;;;;;18.87;62.12;99388.59;5045323;28;20056;-83
2022/09/15 05:31:09;;;;;;;0.35;0.35;;;;;;;19.32;61.70;99420.91;5033535;28;20065;-82
2022/09/15 05:33:35;;;;;;;0.63;0.63;;;;;;;19.39;61.04;99397.38;5033186;28;20175;-84
2022/09/15 05:36:01;;;;;;;1.20;1.00;;;;;;;19.50;60.32;99377.09;5033087;28;20476;-83
2022/09/15 05:38:29;;;;;;;2.78;2.58;;;;;;;19.46;60.27;99394.28;5032563;28;20041;-82
2022/09/15 05:41:03;;;;;;;9.40;1.67;;;;;;;19.87;60.01;99408.94;5032675;28;20036;-83
2022/09/15 05:43:33;;;;;;;1.50;1.40;;;;;;;20.07;58.82;99398.88;5032713;28;20033;-83
2022/09/15 05:45:58;;;;;;;2.22;2.08;;;;;;;20.21;58.91;99377.50;5032359;28;20395;-83
2022/09/15 05:48:24;;;;;;;1.65;1.55;;;;;;;20.54;57.80;99390.69;5031774;28;20057;-83
2022/09/15 05:50:51;;;;;;;2.38;1.45;;;;;;;20.77;57.26;99401.81;5032073;28;20422;-83
2022/09/15 05:53:19;;;;;;;7.53;1.77;;;;;;;21.00;56.33;99378.94;5032552;28;20041;-83
2022/09/15 05:55:45;;;;;;;3.22;1.95;;;;;;;21.05;55.15;99373.28;5032754;28;20041;-83
2022/09/15 05:58:10;;;;;;;1.38;1.20;;;;;;;21.26;54.00;99363.00;5032416;28;20033;-82
2022/09/15 06:00:36;;;;;;;0.80;0.80;;;;;;;21.41;53.63;99379.91;5032491;28;20116;-83
2022/09/15 06:03:02;;;;;;;2.83;1.77;;;;;;;21.65;53.40;99353.34;5032908;28;21115;-84
2022/09/15 06:05:28;;;;;;;1.98;0.40;;;;;;;22.04;52.75;99381.16;5032694;28;20501;-82
2022/09/15 06:07:55;;;;;;;2.13;2.00;;;;;;;22.04;52.09;99370.41;5032793;28;20033;-84
2022/09/15 06:10:23;;;;;;;1.33;1.23;;;;;;;21.97;52.49;99375.34;5032861;28;20487;-82
2022/09/15 06:12:50;;;;;;;1.40;1.08;;;;;;;22.03;52.65;99365.13;5032634;28;20026;-83
2022/09/15 06:15:15;;;;;;;2.15;1.95;;;;;;;22.18;52.46;99372.16;5032681;28;20410;-83
2022/09/15 06:17:41;;;;;;;2.40;2.20;;;;;;;22.27;52.61;99374.22;5032345;28;20026;-83
2022/09/15 06:20:06;;;;;;;2.30;1.98;;;;;;;22.63;52.36;99361.94;5032512;28;20392;-85
2022/09/15 06:22:32;;;;;;;3.17;2.88;;;;;;;22.78;51.33;99364.50;5032648;28;20034;-83
2022/09/15 06:24:58;;;;;;;3.65;2.30;;;;;;;22.69;50.78;99349.84;5032888;28;20029;-84
2022/09/15 06:27:24;;;;;;;8.65;1.63;;;;;;;22.87;50.12;99383.50;5032523;28;20026;-82
2022/09/15 06:29:50;;;;;;;0.52;0.52;;;;;;;22.86;50.49;99362.09;5032276;28;20044;-83
2022/09/15 06:32:15;;;;;;;1.95;1.33;;;;;;;23.02;50.07;99386.09;5031238;28;20061;-84
2022/09/15 06:34:41;;;;;;;0.50;0.50;;;;;;;22.84;50.94;99375.66;5031881;28;20068;-81
2022/09/15 06:37:07;;;;;;;0.57;0.57;;;;;;;23.17;50.13;99386.84;5032442;28;20442;-81
2022/09/15 06:39:32;;;;;;;1.27;1.05;;;;;;;23.29;50.43;99366.25;5032423;28;20037;-81
2022/09/15 06:41:57;;;;;;;1.35;1.23;;;;;;;23.50;48.79;99377.28;5032042;28;20041;-82
2022/09/15 06:44:23;;;;;;;11.02;3.35;;;;;;;23.54;48.53;99378.75;5032212;28;20055;-82
2022/09/15 06:46:49;;;;;;;2.53;2.00;;;;;;;23.82;47.26;99371.31;5032166;28;20037;-84
2022/09/15 06:49:14;;;;;;;4.10;1.67;;;;;;;24.52;45.46;99358.84;5031819;28;20053;-81
2022/09/15 06:51:40;;;;;;;3.38;0.93;;;;;;;24.82;44.18;99371.75;5032180;28;20550;-82
2022/09/15 06:54:06;;;;;;;1.10;1.00;;;;;;;25.12;44.60;99381.09;5032212;28;20029;-82
2022/09/15 06:56:32;;;;;;;15.40;1.52;;;;;;;25.47;43.95;99350.38;5041099;28;20062;-81
2022/09/15 06:58:59;;;;;;;1.70;1.60;;;;;;;25.33;44.36;99322.69;5015555;28;20037;-81
2022/09/15 07:01:30;;;;;;;2.42;1.67;;;;;;;25.67;44.09;99365.81;5031929;28;20035;-84
2022/09/15 07:03:57;;;;;;;2.15;1.83;;;;;;;25.95;43.99;99351.81;5031425;28;20033;-82
2022/09/15 07:06:26;;;;;;;3.78;2.33;;;;;;;26.12;43.90;99342.28;5031618;28;20026;-81
2022/09/15 07:08:52;;;;;;;1.67;1.55;;;;;;;26.07;43.11;99345.41;5031537;28;20029;-82
2022/09/15 07:11:19;;;;;;;2.45;2.10;;;;;;;26.55;41.47;99361.06;5031741;28;20116;-82
2022/09/15 07:13:47;;;;;;;2.05;1.35;;;;;;;26.58;41.28;99352.69;5031516;28;20052;-82
2022/09/15 07:16:13;;;;;;;1.75;1.65;;;;;;;26.45;42.00;99362.88;5031454;28;20037;-81
2022/09/15 07:18:38;;;;;;;1.60;1.50;;;;;;;26.89;41.74;99352.72;5031429;28;20040;-81
2022/09/15 07:21:06;;;;;;;4.25;3.03;;;;;;;26.62;41.12;99326.25;5031347;28;20506;-82
2022/09/15 07:23:33;;;;;;;1.42;1.20;;;;;;;26.96;40.77;99343.09;5031286;28;20034;-82
2022/09/15 07:26:24;;;;;;;1.63;1.17;;;;;;;27.22;39.99;99331.78;5031392;28;20107;-81
2022/09/15 07:28:55;;;;;;;2.15;1.95;;;;;;;27.64;40.02;99358.69;5030671;28;20045;-82
2022/09/15 07:31:22;;;;;;;2.47;2.28;;;;;;;27.76;39.82;99336.84;5013084;28;20037;-82
2022/09/15 07:33:48;;;;;;;3.63;2.78;;;;;;;27.85;38.13;99317.03;5031015;28;20491;-82
2022/09/15 07:36:14;;;;;;;3.30;1.58;;;;;;;28.25;38.76;99335.00;5031355;28;20033;-82
2022/09/15 07:38:44;;;;;;;2.40;1.70;;;;;;;28.46;37.72;99326.69;5031354;28;20415;-81
2022/09/15 07:41:17;;;;;;;3.95;1.55;;;;;;;28.53;37.00;99335.97;5030968;28;20025;-82
2022/09/15 07:43:52;;;;;;;1.38;1.27;;;;;;;28.36;37.15;99294.19;5031051;28;20036;-83
2022/09/15 07:46:19;;;;;;;2.25;2.05;;;;;;;29.02;36.71;99343.94;5031222;28;20060;-81
2022/09/15 07:48:47;;;;;;;7.28;2.72;;;;;;;29.14;36.61;99339.16;5030769;28;20037;-82
2022/09/15 07:51:14;;;;;;;8.50;1.58;;;;;;;29.30;36.01;99341.25;5030994;28;20128;-82
2022/09/15 07:53:39;;;;;;;3.20;2.08;;;;;;;29.22;35.26;99335.72;5030976;28;20044;-82
2022/09/15 07:56:06;;;;;;;0.98;0.77;;;;;;;29.33;35.05;99349.09;5012221;28;20045;-81
2022/09/15 07:58:32;;;;;;;1.73;1.23;;;;;;;29.68;35.39;99355.59;5031219;28;20095;-83
2022/09/15 08:01:04;;;;;;;2.50;2.13;;;;;;;29.17;36.11;99340.72;5031018;28;20033;-81
2022/09/15 08:03:30;;;;;;;1.05;0.70;;;;;;;29.45;35.68;99356.00;5038108;28;20068;-84
2022/09/15 08:06:00;;;;;;;2.88;1.60;;;;;;;29.40;35.65;99355.63;5035407;28;20569;-81
2022/09/15 08:08:26;;;;;;;3.65;1.20;;;;;;;29.38;35.47;99352.22;5029073;28;20030;-82
2022/09/15 08:10:52;;;;;;;2.35;1.48;;;;;;;29.28;35.91;99341.41;5030660;28;20419;-82
2022/09/15 08:13:17;;;;;;;1.75;1.10;;;;;;;29.76;34.99;99320.31;5030337;28;20042;-83
2022/09/15 08:15:43;;;;;;;2.35;1.20;;;;;;;29.67;34.82;99328.56;5029064;28;20029;-81
2022/09/15 08:18:09;;;;;;;3.30;2.17;;;;;;;29.67;34.49;99314.97;5030552;28;20025;-82
2022/09/15 08:20:38;;;;;;;1.42;0.90;;;;;;;30.25;35.58;99343.56;5030710;28;20419;-81
2022/09/15 08:23:03;;;;;;;2.35;2.13;;;;;;;29.91;34.29;99320.66;5030651;28;20116;-81
2022/09/15 08:25:29;;;;;;;1.55;0.73;;;;;;;29.95;34.37;99335.66;5030793;28;20121;-81
2022/09/15 08:27:55;;;;;;;1.92;1.33;;;;;;;29.62;34.97;99345.34;5030777;28;20037;-82
2022/09/15 08:30:22;;;;;;;2.13;1.38;;;;;;;30.08;35.31;99346.13;5030623;28;20029;-82
2022/09/15 08:32:48;;;;;;;5.65;1.98;;;;;;;30.08;35.51;99342.56;5030122;28;20060;-82
2022/09/15 08:35:14;;;;;;;1.00;0.60;;;;;;;29.93;35.37;99332.22;5030804;28;20040;-85
2022/09/15 08:37:40;;;;;;;1.40;1.15;;;;;;;29.68;34.85;99308.53;5030446;28;20033;-81
2022/09/15 08:40:08;;;;;;;1.45;1.25;;;;;;;30.03;36.08;99326.72;5030618;28;20338;-81
2022/09/15 08:42:34;;;;;;;2.55;1.42;;;;;;;30.42;36.30;99342.69;5030570;28;20084;-81
2022/09/15 08:45:13;;;;;;;1.27;0.73;;;;;;;30.18;34.93;99295.22;5030676;28;20033;-82
2022/09/15 08:47:47;;;;;;;2.95;2.53;;;;;;;30.44;35.85;99323.47;5030419;28;20491;-82
2022/09/15 08:50:26;;;;;;;1.73;1.63;;;;;;;30.27;34.07;99336.94;5030701;28;20562;-82
2022/09/15 08:53:01;;;;;;;2.95;2.05;;;;;;;30.23;34.24;99337.41;5030418;28;20034;-82
2022/09/15 08:55:49;;;;;;;1.30;1.20;;;;;;;29.88;35.37;99352.75;5031937;28;20537;-83
2022/09/15 08:58:20;;;;;;;0.90;0.60;;;;;;;29.86;33.60;99316.69;5033960;28;20454;-84
2022/09/15 09:00:50;;;;;;;2.35;1.95;;;;;;;29.69;34.04;99334.69;5033696;28;20060;-84
2022/09/15 09:03:34;;;;;;;0.70;0.47;;;;;;;29.83;32.83;99347.78;5044110;28;20068;-84
2022/09/15 09:06:27;;;;;;;0.68;0.68;;;;;;;29.98;33.09;99312.72;5047087;28;20037;-84
2022/09/15 09:09:14;;;;;;;0.45;0.40;;;;;;;30.22;35.62;99335.72;5049517;28;20043;-83
2022/09/15 09:11:45;;;;;;;0.65;0.65;;;;;;;30.61;31.83;99324.44;5049958;28;20036;-85
2022/09/15 09:14:34;;;;;;;1.42;1.33;;;;;;;30.67;31.99;99326.50;5045018;28;20067;-83
2022/09/15 09:17:24;;;;;;;1.38;1.25;;;;;;;30.63;32.92;99325.13;5031465;28;20041;-86
2022/09/15 09:20:14;;;;;;;0.90;0.90;;;;;;;30.20;32.10;99326.84;5035896;28;20511;-84
2022/09/15 09:22:42;;;;;;;2.95;1.48;;;;;;;30.30;31.73;99282.19;5028327;28;20420;-88
2022/09/15 09:25:13;;;;;;;0.80;0.65;;;;;;;30.61;31.35;99303.50;5028607;28;20076;-86
2022/09/15 09:27:39;;;;;;;0.88;0.77;;;;;;;30.52;31.23;99291.75;5027763;28;20037;-84
2022/09/15 09:30:11;;;;;;;1.13;0.93;;;;;;;30.73;31.47;99306.81;5029043;28;20030;-87
2022/09/15 09:33:27;;;;;;;0.75;0.75;;;;;;;30.84;31.62;99292.91;5028693;28;20030;-84
2022/09/15 09:35:52;;;;;;;2.65;1.38;;;;;;;30.35;33.00;99273.56;4986529;28;20026;-83
2022/09/15 09:38:29;;;;;;;2.13;1.23;;;;;;;30.91;32.41;99276.78;5006669;28;20482;-83
2022/09/15 09:40:55;;;;;;;1.90;1.23;;;;;;;30.31;32.81;99259.44;5041455;28;20029;-83
2022/09/15 09:43:21;;;;;;;1.08;1.08;;;;;;;30.38;32.28;99284.13;5049213;28;20779;-89
2022/09/15 09:45:46;;;;;;;2.25;1.30;;;;;;;30.42;32.50;99255.63;5047831;28;20099;-83
2022/09/15 09:48:20;;;;;;;0.90;0.75;;;;;;;30.09;33.26;99271.72;5048466;28;20498;-84
2022/09/15 09:50:49;;;;;;;2.10;1.30;;;;;;;30.40;33.59;99245.91;5047030;28;20040;-85
2022/09/15 09:53:21;;;;;;;1.00;0.85;;;;;;;30.79;32.77;99280.81;5048709;28;20041;-83
2022/09/15 09:55:46;;;;;;;1.55;1.45;;;;;;;31.03;30.58;99271.91;5049274;28;20558;-84
2022/09/15 09:58:18;;;;;;;0.60;0.60;;;;;;;31.19;31.01;99249.31;5030627;28;20045;-82
2022/09/15 10:00:44;;;;;;;0.52;0.47;;;;;;;31.00;30.26;99239.56;5052115;28;20112;-82
2022/09/15 10:03:21;;;;;;;1.02;0.88;;;;;;;30.95;29.26;99250.06;5048519;28;20044;-83
2022/09/15 10:06:21;;;;;;;1.10;0.82;;;;;;;31.32;28.83;99251.56;5048463;28;20033;-83
2022/09/15 10:08:55;;;;;;;1.00;0.95;;;;;;;31.52;29.51;99249.38;5015131;28;20498;-83
2022/09/15 10:11:21;;;;;;;0.73;0.63;;;;;;;31.32;28.90;99216.13;5048281;28;20025;-84
2022/09/15 10:13:53;;;;;;;0.50;0.50;;;;;;;31.83;27.95;99218.72;5048839;28;20040;-85
2022/09/15 10:16:20;;;;;;;1.50;1.20;;;;;;;31.91;28.76;99225.00;5048744;28;20094;-83
2022/09/15 10:18:48;;;;;;;0.20;0.20;;;;;;;32.06;27.73;99206.06;5048827;28;20526;-83
2022/09/15 10:21:14;;;;;;;1.00;0.90;;;;;;;32.09;29.00;99233.03;5048624;28;20412;-83
2022/09/15 10:23:42;;;;;;;2.20;1.52;;;;;;;31.80;28.29;99216.34;5048571;28;20119;-85
2022/09/15 10:26:13;;;;;;;2.25;1.15;;;;;;;32.18;28.30;99228.44;5030950;28;20422;-83
2022/09/15 10:28:39;;;;;;;1.13;1.00;;;;;;;32.49;27.55;99228.50;5048853;28;20037;-82
2022/09/15 10:31:23;;;;;;;2.22;1.13;;;;;;;32.11;27.22;99198.25;5048449;28;20033;-84
2022/09/15 10:33:48;;;;;;;0.30;0.30;;;;;;;32.42;26.77;99189.28;5048723;28;20039;-83
2022/09/15 10:36:17;;;;;;;1.48;1.10;;;;;;;32.31;26.55;99176.88;5046091;28;20044;-83
2022/09/15 10:38:48;;;;;;;1.38;1.15;;;;;;;32.41;27.13;99176.69;5028479;28;20022;-83
2022/09/15 10:41:21;;;;;;;7.40;1.67;;;;;;;32.37;26.82;99202.63;5028227;28;20038;-83
2022/09/15 10:44:01;;;;;;;2.22;1.65;;;;;;;32.39;27.72;99173.25;5011761;28;20030;-83
2022/09/15 10:46:31;;;;;;;0.28;0.13;;;;;;;32.30;27.46;99183.38;5031450;28;20095;-83
2022/09/15 10:49:24;;;;;;;1.15;0.93;;;;;;;32.32;27.00;99196.84;5028580;28;20530;-83
2022/09/15 10:51:50;;;;;;;1.38;1.20;;;;;;;32.36;26.61;99176.34;5028237;28;20408;-83
2022/09/15 10:54:43;;;;;;;0.82;0.80;;;;;;;32.38;27.30;99166.13;5028790;28;20045;-84
2022/09/15 10:57:43;;;;;;;0.85;0.85;;;;;;;32.71;27.54;99167.88;5029080;28;20102;-83
2022/09/15 11:00:21;;;;;;;0.63;0.57;;;;;;;32.92;26.79;99180.88;5031371;28;20037;-83
2022/09/15 11:02:52;;;;;;;1.55;0.75;;;;;;;32.84;26.75;99182.66;5031361;28;20041;-82
2022/09/15 11:05:24;;;;;;;1.63;0.73;;;;;;;32.84;27.89;99176.31;5031655;28;20072;-83
2022/09/15 11:08:23;;;;;;;0.55;0.45;;;;;;;32.82;26.67;99123.78;5031582;28;20033;-83
2022/09/15 11:11:06;;;;;;;7.43;1.90;;;;;;;32.97;26.82;99175.75;5041825;28;20487;-84
2022/09/15 11:14:04;;;;;;;3.90;2.40;;;;;;;32.97;27.53;99154.75;5051061;28;20039;-86
2022/09/15 11:16:45;;;;;;;0.10;0.10;;;;;;;33.21;27.01;99155.63;5051439;28;20025;-85
2022/09/15 11:19:38;;;;;;;0.98;0.75;;;;;;;33.25;26.55;99151.50;5050822;28;20036;-85
2022/09/15 11:22:11;;;;;;;0.65;0.65;;;;;;;33.41;27.49;99155.97;5051173;28;20041;-85
2022/09/15 11:24:39;;;;;;;0.98;0.80;;;;;;;33.57;26.57;99152.25;5051253;28;20082;-84
2022/09/15 11:27:22;;;;;;;0.40;0.40;;;;;;;33.33;27.33;99104.97;5051224;28;20029;-84
2022/09/15 11:30:00;;;;;;;2.75;1.60;;;;;;;33.23;28.20;99114.44;5051185;28;20035;-84
2022/09/15 11:32:33;;;;;;;0.52;0.52;;;;;;;32.72;29.04;99083.06;5051109;28;20123;-85
2022/09/15 11:35:37;;;;;;;5.00;1.85;;;;;;;33.11;27.82;99114.84;5051439;28;20174;-84
2022/09/15 11:38:31;;;;;;;1.67;1.33;;;;;;;33.16;26.99;99109.69;5041705;28;20033;-84
2022/09/15 11:41:10;;;;;;;2.85;1.33;;;;;;;33.35;25.88;99121.19;5050926;28;20029;-84
2022/09/15 11:43:44;;;;;;;0.30;0.30;;;;;;;33.52;25.97;99110.94;5051201;28;20039;-84
2022/09/15 11:46:14;;;;;;;;;;;;;;;33.64;25.05;99111.34;5051447;28;20021;-84
2022/09/15 11:48:47;;;;;;;1.65;1.40;;;;;;;33.47;27.20;99088.78;5050914;28;19916;-83
2022/09/15 11:51:17;;;;;;;2.90;1.13;;;;;;;33.46;26.44;99087.97;5050673;28;20021;-84
2022/09/15 11:53:56;;;;;;;0.77;0.73;;;;;;;33.76;26.53;99107.16;5050948;28;20082;-84